sensor_id;sensor_type;location;lat;lon;timestamp;pressure;altitude;pressure_sealevel;temperature;humidity
33454;BME280;39400;49.744;7.012;2023-08-01T00:00:30;94717.75;;;18.50;100.00
33454;BME280;39400;49.744;7.012;2023-08-01T00:02:56;94732.06;;;20.41;100.00
33454;BME280;39400;49.744;7.012;2023-08-01T00:05:22;94780.31;;;19.03;100.00
33454;BME280;39400;49.744;7.012;2023-08-01T00:07:47;94780.81;;;20.81;100.00
33454;BME280;39400;49.744;7.012;2023-08-01T00:10:13;94760.34;;;19.34;100.00
33454;BME280;39400;49.744;7.012;2023-08-01T00:12:38;94768.25;;;19.51;100.00
33454;BME280;39400;49.744;7.012;2023-08-01T00:15:04;94761.78;;;19.44;100.00
33454;BME280;39400;49.744;7.012;2023-08-01T00:17:29;94751.13;;;19.28;100.00
33454;BME280;39400;49.744;7.012;2023-08-01T00:19:55;94729.56;;;19.58;100.00
33454;BME280;39400;49.744;7.012;2023-08-01T00:22:21;94709.00;;;20.06;100.00
33454;BME280;39400;49.744;7.012;2023-08-01T00:24:46;94698.53;;;19.51;100.00
33454;BME280;39400;49.744;7.012;2023-08-01T00:27:11;94690.69;;;19.84;100.00
33454;BME280;39400;49.744;7.012;2023-08-01T00:29:37;94688.91;;;20.02;100.00
33454;BME280;39400;49.744;7.012;2023-08-01T00:32:02;94692.03;;;19.89;100.00
33454;BME280;39400;49.744;7.012;2023-08-01T00:34:28;94690.16;;;19.65;100.00
33454;BME280;39400;49.744;7.012;2023-08-01T00:36:53;94694.31;;;19.40;100.00
33454;BME280;39400;49.744;7.012;2023-08-01T00:39:18;94688.91;;;19.52;100.00
33454;BME280;39400;49.744;7.012;2023-08-01T00:41:44;94696.16;;;19.14;100.00
33454;BME280;39400;49.744;7.012;2023-08-01T00:44:09;94712.47;;;19.21;100.00
33454;BME280;39400;49.744;7.012;2023-08-01T00:46:35;94679.69;;;19.45;100.00
33454;BME280;39400;49.744;7.012;2023-08-01T00:49:00;94670.69;;;19.86;100.00
33454;BME280;39400;49.744;7.012;2023-08-01T00:51:26;94664.19;;;19.94;100.00
33454;BME280;39400;49.744;7.012;2023-08-01T00:53:52;94646.47;;;19.77;100.00
33454;BME280;39400;49.744;7.012;2023-08-01T00:56:18;94650.72;;;19.73;100.00
33454;BME280;39400;49.744;7.012;2023-08-01T00:58:44;94633.91;;;19.87;100.00
33454;BME280;39400;49.744;7.012;2023-08-01T01:01:09;94633.09;;;20.02;100.00
33454;BME280;39400;49.744;7.012;2023-08-01T01:03:36;94632.22;;;19.25;100.00
33454;BME280;39400;49.744;7.012;2023-08-01T01:08:52;94620.41;;;19.30;100.00
33454;BME280;39400;49.744;7.012;2023-08-01T01:11:17;94621.69;;;18.99;100.00
33454;BME280;39400;49.744;7.012;2023-08-01T01:13:42;94599.56;;;19.61;100.00
33454;BME280;39400;49.744;7.012;2023-08-01T01:16:08;94597.09;;;19.83;100.00
33454;BME280;39400;49.744;7.012;2023-08-01T01:18:33;94573.13;;;19.71;100.00
33454;BME280;39400;49.744;7.012;2023-08-01T01:20:59;94563.72;;;19.33;100.00
33454;BME280;39400;49.744;7.012;2023-08-01T01:23:25;94571.31;;;19.53;100.00
33454;BME280;39400;49.744;7.012;2023-08-01T01:25:53;94582.47;;;19.18;100.00
33454;BME280;39400;49.744;7.012;2023-08-01T01:28:20;94595.19;;;19.19;100.00
33454;BME280;39400;49.744;7.012;2023-08-01T01:30:45;94597.09;;;18.53;100.00
33454;BME280;39400;49.744;7.012;2023-08-01T01:33:11;94581.88;;;19.64;100.00
33454;BME280;39400;49.744;7.012;2023-08-01T01:35:36;94589.63;;;19.39;100.00
33454;BME280;39400;49.744;7.012;2023-08-01T01:38:02;94577.59;;;19.48;100.00
33454;BME280;39400;49.744;7.012;2023-08-01T01:40:28;94572.91;;;19.39;100.00
33454;BME280;39400;49.744;7.012;2023-08-01T01:42:53;94563.72;;;19.89;100.00
33454;BME280;39400;49.744;7.012;2023-08-01T01:45:19;94549.22;;;19.49;100.00
33454;BME280;39400;49.744;7.012;2023-08-01T01:47:44;94529.78;;;19.55;100.00
33454;BME280;39400;49.744;7.012;2023-08-01T01:50:09;94538.75;;;19.24;100.00
33454;BME280;39400;49.744;7.012;2023-08-01T01:52:35;94557.84;;;19.31;100.00
33454;BME280;39400;49.744;7.012;2023-08-01T01:55:00;94569.41;;;19.24;100.00
33454;BME280;39400;49.744;7.012;2023-08-01T01:57:26;94565.56;;;19.77;100.00
33454;BME280;39400;49.744;7.012;2023-08-01T01:59:52;94553.59;;;19.00;100.00
33454;BME280;39400;49.744;7.012;2023-08-01T02:02:17;94561.41;;;19.32;100.00
33454;BME280;39400;49.744;7.012;2023-08-01T02:04:44;94548.78;;;19.16;100.00
33454;BME280;39400;49.744;7.012;2023-08-01T02:07:09;94576.22;;;19.23;100.00
33454;BME280;39400;49.744;7.012;2023-08-01T02:09:35;94551.22;;;19.64;100.00
33454;BME280;39400;49.744;7.012;2023-08-01T02:12:01;94549.78;;;19.18;100.00
33454;BME280;39400;49.744;7.012;2023-08-01T02:14:26;94541.88;;;19.67;100.00
33454;BME280;39400;49.744;7.012;2023-08-01T02:16:52;94538.22;;;19.61;100.00
33454;BME280;39400;49.744;7.012;2023-08-01T02:19:18;94538.81;;;19.65;100.00
33454;BME280;39400;49.744;7.012;2023-08-01T02:21:43;94539.19;;;19.37;100.00
33454;BME280;39400;49.744;7.012;2023-08-01T02:24:10;94538.06;;;19.49;100.00
33454;BME280;39400;49.744;7.012;2023-08-01T02:26:35;94530.78;;;20.19;100.00
33454;BME280;39400;49.744;7.012;2023-08-01T02:29:00;94528.50;;;20.17;100.00
33454;BME280;39400;49.744;7.012;2023-08-01T02:31:26;94543.53;;;20.00;100.00
33454;BME280;39400;49.744;7.012;2023-08-01T02:33:51;94544.63;;;19.46;100.00
33454;BME280;39400;49.744;7.012;2023-08-01T02:36:16;94548.84;;;19.98;100.00
33454;BME280;39400;49.744;7.012;2023-08-01T02:38:42;94538.94;;;20.23;100.00
33454;BME280;39400;49.744;7.012;2023-08-01T02:41:07;94535.47;;;19.81;100.00
33454;BME280;39400;49.744;7.012;2023-08-01T02:43:33;94534.94;;;19.62;100.00
33454;BME280;39400;49.744;7.012;2023-08-01T02:45:58;94512.09;;;20.25;100.00
33454;BME280;39400;49.744;7.012;2023-08-01T02:48:23;94519.06;;;19.48;100.00
33454;BME280;39400;49.744;7.012;2023-08-01T02:50:49;94494.84;;;19.39;100.00
33454;BME280;39400;49.744;7.012;2023-08-01T02:53:14;94504.72;;;19.76;100.00
33454;BME280;39400;49.744;7.012;2023-08-01T02:55:39;94506.72;;;19.55;100.00
33454;BME280;39400;49.744;7.012;2023-08-01T02:58:05;94506.00;;;19.60;100.00
33454;BME280;39400;49.744;7.012;2023-08-01T03:00:30;94515.75;;;19.49;100.00
33454;BME280;39400;49.744;7.012;2023-08-01T03:02:55;94515.22;;;19.86;100.00
33454;BME280;39400;49.744;7.012;2023-08-01T03:05:21;94510.69;;;19.48;100.00
33454;BME280;39400;49.744;7.012;2023-08-01T03:07:46;94509.56;;;19.60;100.00
33454;BME280;39400;49.744;7.012;2023-08-01T03:10:12;94509.22;;;19.53;100.00
33454;BME280;39400;49.744;7.012;2023-08-01T03:12:37;94506.03;;;19.80;100.00
33454;BME280;39400;49.744;7.012;2023-08-01T03:15:03;94506.00;;;19.60;100.00
33454;BME280;39400;49.744;7.012;2023-08-01T03:17:29;94498.34;;;19.34;100.00
33454;BME280;39400;49.744;7.012;2023-08-01T03:19:54;94498.81;;;19.12;100.00
33454;BME280;39400;49.744;7.012;2023-08-01T03:22:19;94494.13;;;19.04;100.00
33454;BME280;39400;49.744;7.012;2023-08-01T03:24:45;94489.06;;;19.43;100.00
33454;BME280;39400;49.744;7.012;2023-08-01T03:27:10;94479.56;;;19.14;100.00
33454;BME280;39400;49.744;7.012;2023-08-01T03:29:36;94473.81;;;19.59;100.00
33454;BME280;39400;49.744;7.012;2023-08-01T03:32:01;94468.31;;;19.44;100.00
33454;BME280;39400;49.744;7.012;2023-08-01T03:34:26;94485.91;;;19.15;100.00
33454;BME280;39400;49.744;7.012;2023-08-01T03:36:52;94515.13;;;18.54;100.00
33454;BME280;39400;49.744;7.012;2023-08-01T03:39:17;94495.81;;;18.66;100.00
33454;BME280;39400;49.744;7.012;2023-08-01T03:41:42;94488.59;;;19.24;100.00
33454;BME280;39400;49.744;7.012;2023-08-01T03:44:08;94483.09;;;18.94;100.00
33454;BME280;39400;49.744;7.012;2023-08-01T03:46:33;94483.28;;;18.91;100.00
33454;BME280;39400;49.744;7.012;2023-08-01T03:48:58;94478.66;;;19.03;100.00
33454;BME280;39400;49.744;7.012;2023-08-01T03:51:24;94487.88;;;19.09;100.00
33454;BME280;39400;49.744;7.012;2023-08-01T03:53:50;94493.78;;;19.72;100.00
33454;BME280;39400;49.744;7.012;2023-08-01T03:56:17;94509.97;;;18.97;100.00
33454;BME280;39400;49.744;7.012;2023-08-01T03:58:42;94500.00;;;19.46;100.00
33454;BME280;39400;49.744;7.012;2023-08-01T04:01:08;94489.13;;;19.28;100.00
33454;BME280;39400;49.744;7.012;2023-08-01T04:03:34;94472.75;;;19.56;100.00
33454;BME280;39400;49.744;7.012;2023-08-01T04:05:59;94467.19;;;19.77;100.00
33454;BME280;39400;49.744;7.012;2023-08-01T04:08:24;94441.28;;;19.97;100.00
33454;BME280;39400;49.744;7.012;2023-08-01T04:10:50;94466.34;;;20.17;100.00
33454;BME280;39400;49.744;7.012;2023-08-01T04:13:15;94470.72;;;19.57;100.00
33454;BME280;39400;49.744;7.012;2023-08-01T04:15:41;94464.00;;;20.10;100.00
33454;BME280;39400;49.744;7.012;2023-08-01T04:18:06;94470.94;;;19.53;100.00
33454;BME280;39400;49.744;7.012;2023-08-01T04:20:32;94470.34;;;19.64;100.00
33454;BME280;39400;49.744;7.012;2023-08-01T04:22:57;94466.31;;;19.65;100.00
33454;BME280;39400;49.744;7.012;2023-08-01T04:25:22;94473.13;;;19.43;100.00
33454;BME280;39400;49.744;7.012;2023-08-01T04:27:48;94478.97;;;19.45;100.00
33454;BME280;39400;49.744;7.012;2023-08-01T04:30:13;94475.53;;;19.71;100.00
33454;BME280;39400;49.744;7.012;2023-08-01T04:32:38;94481.53;;;19.49;100.00
33454;BME280;39400;49.744;7.012;2023-08-01T04:35:04;94479.69;;;20.07;100.00
33454;BME280;39400;49.744;7.012;2023-08-01T04:37:30;94485.22;;;20.54;100.00
33454;BME280;39400;49.744;7.012;2023-08-01T04:39:55;94454.19;;;20.20;100.00
33454;BME280;39400;49.744;7.012;2023-08-01T04:42:20;94450.13;;;19.69;100.00
33454;BME280;39400;49.744;7.012;2023-08-01T04:44:46;94449.38;;;19.94;100.00
33454;BME280;39400;49.744;7.012;2023-08-01T04:47:11;94456.69;;;19.66;100.00
33454;BME280;39400;49.744;7.012;2023-08-01T04:49:36;94458.47;;;19.89;100.00
33454;BME280;39400;49.744;7.012;2023-08-01T04:52:02;94445.16;;;19.79;100.00
33454;BME280;39400;49.744;7.012;2023-08-01T04:54:28;94485.50;;;19.22;100.00
33454;BME280;39400;49.744;7.012;2023-08-01T04:56:53;94482.03;;;19.27;100.00
33454;BME280;39400;49.744;7.012;2023-08-01T04:59:18;94492.06;;;19.19;100.00
33454;BME280;39400;49.744;7.012;2023-08-01T05:01:44;94493.88;;;19.42;100.00
33454;BME280;39400;49.744;7.012;2023-08-01T05:04:09;94488.72;;;19.35;100.00
33454;BME280;39400;49.744;7.012;2023-08-01T05:06:34;94498.78;;;19.47;100.00
33454;BME280;39400;49.744;7.012;2023-08-01T05:09:00;94492.91;;;18.90;100.00
33454;BME280;39400;49.744;7.012;2023-08-01T05:11:25;94486.09;;;19.26;100.00
33454;BME280;39400;49.744;7.012;2023-08-01T05:13:51;94484.31;;;19.29;100.00
33454;BME280;39400;49.744;7.012;2023-08-01T05:16:16;94475.84;;;19.38;100.00
33454;BME280;39400;49.744;7.012;2023-08-01T05:18:41;94497.41;;;19.78;100.00
33454;BME280;39400;49.744;7.012;2023-08-01T05:21:07;94468.22;;;20.00;100.00
33454;BME280;39400;49.744;7.012;2023-08-01T05:23:32;94488.06;;;19.81;100.00
33454;BME280;39400;49.744;7.012;2023-08-01T05:25:58;94490.06;;;20.33;100.00
33454;BME280;39400;49.744;7.012;2023-08-01T05:28:23;94488.22;;;19.98;100.00
33454;BME280;39400;49.744;7.012;2023-08-01T05:30:48;94475.25;;;20.21;100.00
33454;BME280;39400;49.744;7.012;2023-08-01T05:33:14;94493.63;;;19.81;100.00
33454;BME280;39400;49.744;7.012;2023-08-01T05:35:39;94505.41;;;20.17;100.00
33454;BME280;39400;49.744;7.012;2023-08-01T05:38:04;94505.72;;;19.17;100.00
33454;BME280;39400;49.744;7.012;2023-08-01T05:40:30;94502.13;;;19.52;100.00
33454;BME280;39400;49.744;7.012;2023-08-01T05:42:55;94539.63;;;19.51;100.00
33454;BME280;39400;49.744;7.012;2023-08-01T05:45:20;94529.28;;;19.36;100.00
33454;BME280;39400;49.744;7.012;2023-08-01T05:47:46;94530.63;;;19.61;100.00
33454;BME280;39400;49.744;7.012;2023-08-01T05:50:11;94546.09;;;19.42;100.00
33454;BME280;39400;49.744;7.012;2023-08-01T05:52:37;94541.81;;;19.46;100.00
33454;BME280;39400;49.744;7.012;2023-08-01T05:55:02;94548.09;;;19.41;100.00
33454;BME280;39400;49.744;7.012;2023-08-01T05:57:29;94555.25;;;20.04;100.00
33454;BME280;39400;49.744;7.012;2023-08-01T05:59:54;94644.41;;;20.13;100.00
33454;BME280;39400;49.744;7.012;2023-08-01T06:02:20;94571.84;;;20.13;100.00
33454;BME280;39400;49.744;7.012;2023-08-01T06:04:45;94562.16;;;19.32;100.00
33454;BME280;39400;49.744;7.012;2023-08-01T06:07:10;94582.56;;;19.23;100.00
33454;BME280;39400;49.744;7.012;2023-08-01T06:09:36;94648.19;;;22.74;100.00
33454;BME280;39400;49.744;7.012;2023-08-01T06:12:01;94591.47;;;20.97;100.00
33454;BME280;39400;49.744;7.012;2023-08-01T06:14:27;94576.09;;;19.88;100.00
33454;BME280;39400;49.744;7.012;2023-08-01T06:16:52;94582.72;;;19.90;100.00
33454;BME280;39400;49.744;7.012;2023-08-01T06:19:17;94577.00;;;20.20;100.00
33454;BME280;39400;49.744;7.012;2023-08-01T06:21:43;94590.56;;;20.53;100.00
33454;BME280;39400;49.744;7.012;2023-08-01T06:24:08;94589.34;;;20.34;100.00
33454;BME280;39400;49.744;7.012;2023-08-01T06:26:34;94603.88;;;20.64;100.00
33454;BME280;39400;49.744;7.012;2023-08-01T06:28:59;94606.50;;;20.47;100.00
33454;BME280;39400;49.744;7.012;2023-08-01T06:31:25;94612.59;;;20.05;100.00
33454;BME280;39400;49.744;7.012;2023-08-01T06:33:51;94606.13;;;20.39;100.00
33454;BME280;39400;49.744;7.012;2023-08-01T06:36:16;94615.97;;;20.81;100.00
33454;BME280;39400;49.744;7.012;2023-08-01T06:38:41;94609.25;;;20.01;100.00
33454;BME280;39400;49.744;7.012;2023-08-01T06:41:07;94611.72;;;20.39;100.00
33454;BME280;39400;49.744;7.012;2023-08-01T06:43:32;94617.03;;;20.58;100.00
33454;BME280;39400;49.744;7.012;2023-08-01T06:45:59;94612.16;;;20.32;100.00
33454;BME280;39400;49.744;7.012;2023-08-01T06:48:24;94618.22;;;19.69;100.00
33454;BME280;39400;49.744;7.012;2023-08-01T06:50:49;94623.59;;;19.73;100.00
33454;BME280;39400;49.744;7.012;2023-08-01T06:53:15;94631.66;;;20.06;100.00
33454;BME280;39400;49.744;7.012;2023-08-01T06:55:40;94627.38;;;20.31;100.00
33454;BME280;39400;49.744;7.012;2023-08-01T06:58:05;94628.91;;;19.71;100.00
33454;BME280;39400;49.744;7.012;2023-08-01T07:00:31;94636.91;;;19.48;100.00
33454;BME280;39400;49.744;7.012;2023-08-01T07:02:56;94642.28;;;19.52;100.00
33454;BME280;39400;49.744;7.012;2023-08-01T07:05:22;94632.06;;;19.64;100.00
33454;BME280;39400;49.744;7.012;2023-08-01T07:07:47;94638.03;;;19.71;100.00
33454;BME280;39400;49.744;7.012;2023-08-01T07:10:12;94644.41;;;20.33;100.00
33454;BME280;39400;49.744;7.012;2023-08-01T07:12:37;94645.66;;;20.12;100.00
33454;BME280;39400;49.744;7.012;2023-08-01T07:15:03;94644.94;;;19.76;100.00
33454;BME280;39400;49.744;7.012;2023-08-01T07:17:28;94659.59;;;19.71;100.00
33454;BME280;39400;49.744;7.012;2023-08-01T07:19:54;94657.94;;;20.00;100.00
33454;BME280;39400;49.744;7.012;2023-08-01T07:22:19;94664.09;;;20.24;100.00
33454;BME280;39400;49.744;7.012;2023-08-01T07:24:44;94658.91;;;20.37;100.00
33454;BME280;39400;49.744;7.012;2023-08-01T07:27:09;94676.06;;;19.89;100.00
33454;BME280;39400;49.744;7.012;2023-08-01T07:29:35;94669.59;;;19.63;100.00
33454;BME280;39400;49.744;7.012;2023-08-01T07:32:00;94677.28;;;19.38;100.00
33454;BME280;39400;49.744;7.012;2023-08-01T07:34:26;94674.25;;;19.86;100.00
33454;BME280;39400;49.744;7.012;2023-08-01T07:36:51;94680.91;;;20.30;100.00
33454;BME280;39400;49.744;7.012;2023-08-01T07:39:17;94685.59;;;19.83;100.00
33454;BME280;39400;49.744;7.012;2023-08-01T07:41:42;94681.66;;;20.30;100.00
33454;BME280;39400;49.744;7.012;2023-08-01T07:44:07;94685.00;;;19.43;100.00
33454;BME280;39400;49.744;7.012;2023-08-01T07:46:32;94679.41;;;19.43;100.00
33454;BME280;39400;49.744;7.012;2023-08-01T07:48:58;94693.03;;;19.56;100.00
33454;BME280;39400;49.744;7.012;2023-08-01T07:51:23;94689.41;;;19.65;100.00
33454;BME280;39400;49.744;7.012;2023-08-01T07:53:51;94704.91;;;19.07;100.00
33454;BME280;39400;49.744;7.012;2023-08-01T07:56:16;94702.22;;;19.27;100.00
33454;BME280;39400;49.744;7.012;2023-08-01T07:58:42;94697.88;;;18.96;100.00
33454;BME280;39400;49.744;7.012;2023-08-01T08:01:07;94697.78;;;19.06;100.00
33454;BME280;39400;49.744;7.012;2023-08-01T08:03:32;94701.31;;;19.51;100.00
33454;BME280;39400;49.744;7.012;2023-08-01T08:05:58;94693.97;;;19.83;100.00
33454;BME280;39400;49.744;7.012;2023-08-01T08:08:23;94703.03;;;19.63;100.00
33454;BME280;39400;49.744;7.012;2023-08-01T08:10:48;94711.81;;;19.91;100.00
33454;BME280;39400;49.744;7.012;2023-08-01T08:13:13;94707.47;;;19.69;100.00
33454;BME280;39400;49.744;7.012;2023-08-01T08:15:39;94707.47;;;20.25;100.00
33454;BME280;39400;49.744;7.012;2023-08-01T08:18:04;94710.91;;;19.49;100.00
33454;BME280;39400;49.744;7.012;2023-08-01T08:20:40;94712.38;;;20.10;100.00
33454;BME280;39400;49.744;7.012;2023-08-01T08:23:06;94714.41;;;20.30;100.00
33454;BME280;39400;49.744;7.012;2023-08-01T08:25:31;94714.31;;;20.04;100.00
33454;BME280;39400;49.744;7.012;2023-08-01T08:27:57;94714.50;;;19.65;100.00
33454;BME280;39400;49.744;7.012;2023-08-01T08:30:22;94724.63;;;20.18;100.00
33454;BME280;39400;49.744;7.012;2023-08-01T08:32:47;94716.31;;;19.68;100.00
33454;BME280;39400;49.744;7.012;2023-08-01T08:35:13;94720.84;;;20.01;100.00
33454;BME280;39400;49.744;7.012;2023-08-01T08:37:38;94724.38;;;20.36;100.00
33454;BME280;39400;49.744;7.012;2023-08-01T08:40:03;94730.22;;;20.18;100.00
33454;BME280;39400;49.744;7.012;2023-08-01T08:42:29;94743.72;;;20.19;100.00
33454;BME280;39400;49.744;7.012;2023-08-01T08:44:55;94725.66;;;19.65;100.00
33454;BME280;39400;49.744;7.012;2023-08-01T08:47:24;94732.84;;;19.42;100.00
33454;BME280;39400;49.744;7.012;2023-08-01T08:49:50;94730.53;;;20.40;100.00
33454;BME280;39400;49.744;7.012;2023-08-01T08:52:16;94733.28;;;21.02;100.00
33454;BME280;39400;49.744;7.012;2023-08-01T08:54:43;94722.28;;;19.61;100.00
33454;BME280;39400;49.744;7.012;2023-08-01T08:57:08;94738.81;;;19.05;100.00
33454;BME280;39400;49.744;7.012;2023-08-01T08:59:34;94732.84;;;19.57;100.00
33454;BME280;39400;49.744;7.012;2023-08-01T09:02:01;94744.72;;;18.83;100.00
33454;BME280;39400;49.744;7.012;2023-08-01T09:04:27;94744.59;;;19.31;100.00
33454;BME280;39400;49.744;7.012;2023-08-01T09:06:55;94749.03;;;19.67;100.00
33454;BME280;39400;49.744;7.012;2023-08-01T09:09:23;94740.16;;;19.39;100.00
33454;BME280;39400;49.744;7.012;2023-08-01T09:11:50;94750.00;;;19.64;100.00
33454;BME280;39400;49.744;7.012;2023-08-01T09:14:16;94742.06;;;19.78;100.00
33454;BME280;39400;49.744;7.012;2023-08-01T09:16:42;94759.00;;;19.74;100.00
33454;BME280;39400;49.744;7.012;2023-08-01T09:19:09;94751.88;;;20.23;100.00
33454;BME280;39400;49.744;7.012;2023-08-01T09:21:35;94756.25;;;20.09;100.00
33454;BME280;39400;49.744;7.012;2023-08-01T09:24:10;94753.25;;;20.13;100.00
33454;BME280;39400;49.744;7.012;2023-08-01T09:26:36;94752.97;;;20.11;100.00
33454;BME280;39400;49.744;7.012;2023-08-01T09:29:02;94758.91;;;19.54;100.00
33454;BME280;39400;49.744;7.012;2023-08-01T09:31:35;94761.41;;;20.72;100.00
33454;BME280;39400;49.744;7.012;2023-08-01T09:34:02;94767.31;;;20.04;100.00
33454;BME280;39400;49.744;7.012;2023-08-01T09:36:27;94767.91;;;20.28;100.00
33454;BME280;39400;49.744;7.012;2023-08-01T09:38:58;94763.31;;;20.46;100.00
33454;BME280;39400;49.744;7.012;2023-08-01T09:41:24;94778.19;;;20.72;100.00
33454;BME280;39400;49.744;7.012;2023-08-01T09:43:49;94768.34;;;20.21;100.00
33454;BME280;39400;49.744;7.012;2023-08-01T09:46:15;94770.97;;;20.86;100.00
33454;BME280;39400;49.744;7.012;2023-08-01T09:48:40;94784.94;;;20.86;100.00
33454;BME280;39400;49.744;7.012;2023-08-01T09:51:16;94766.41;;;20.88;100.00
33454;BME280;39400;49.744;7.012;2023-08-01T09:53:49;94766.16;;;20.86;95.87
33454;BME280;39400;49.744;7.012;2023-08-01T09:56:18;94772.94;;;20.24;99.31
33454;BME280;39400;49.744;7.012;2023-08-01T09:58:44;94763.34;;;21.07;98.92
33454;BME280;39400;49.744;7.012;2023-08-01T10:01:11;94775.84;;;20.15;99.82
33454;BME280;39400;49.744;7.012;2023-08-01T10:03:39;94771.13;;;19.71;100.00
33454;BME280;39400;49.744;7.012;2023-08-01T10:06:07;94777.97;;;20.20;100.00
33454;BME280;39400;49.744;7.012;2023-08-01T10:08:33;94777.63;;;20.33;100.00
33454;BME280;39400;49.744;7.012;2023-08-01T10:11:02;94769.63;;;20.40;100.00
33454;BME280;39400;49.744;7.012;2023-08-01T10:13:29;94781.53;;;20.56;100.00
33454;BME280;39400;49.744;7.012;2023-08-01T10:15:54;94768.44;;;20.47;96.78
33454;BME280;39400;49.744;7.012;2023-08-01T10:18:20;94780.38;;;20.88;97.87
33454;BME280;39400;49.744;7.012;2023-08-01T10:20:46;94769.44;;;20.64;97.56
33454;BME280;39400;49.744;7.012;2023-08-01T10:23:13;94778.03;;;20.61;94.56
33454;BME280;39400;49.744;7.012;2023-08-01T10:25:39;94768.19;;;20.65;95.45
33454;BME280;39400;49.744;7.012;2023-08-01T10:28:06;94778.91;;;21.13;93.05
33454;BME280;39400;49.744;7.012;2023-08-01T10:30:31;94764.19;;;20.93;89.53
33454;BME280;39400;49.744;7.012;2023-08-01T10:32:58;94766.03;;;22.11;88.18
33454;BME280;39400;49.744;7.012;2023-08-01T10:35:38;94752.94;;;21.59;90.87
33454;BME280;39400;49.744;7.012;2023-08-01T10:38:04;94768.94;;;21.59;86.93
33454;BME280;39400;49.744;7.012;2023-08-01T10:40:39;94758.69;;;22.14;86.72
33454;BME280;39400;49.744;7.012;2023-08-01T10:43:05;94767.25;;;20.95;85.18
33454;BME280;39400;49.744;7.012;2023-08-01T10:45:31;94764.16;;;20.31;87.48
33454;BME280;39400;49.744;7.012;2023-08-01T10:48:10;94779.09;;;20.49;89.03
33454;BME280;39400;49.744;7.012;2023-08-01T10:50:35;94785.78;;;20.92;88.71
33454;BME280;39400;49.744;7.012;2023-08-01T10:53:06;94778.44;;;20.54;88.08
33454;BME280;39400;49.744;7.012;2023-08-01T10:55:43;94776.78;;;20.82;91.40
33454;BME280;39400;49.744;7.012;2023-08-01T10:58:08;94773.78;;;20.65;95.52
33454;BME280;39400;49.744;7.012;2023-08-01T11:00:34;94779.69;;;20.94;96.88
33454;BME280;39400;49.744;7.012;2023-08-01T11:02:59;94782.91;;;21.07;96.40
33454;BME280;39400;49.744;7.012;2023-08-01T11:05:24;94787.75;;;21.12;89.11
33454;BME280;39400;49.744;7.012;2023-08-01T11:07:54;94774.38;;;21.42;92.81
33454;BME280;39400;49.744;7.012;2023-08-01T11:10:19;94787.47;;;21.82;88.03
33454;BME280;39400;49.744;7.012;2023-08-01T11:12:45;94791.19;;;21.74;89.29
33454;BME280;39400;49.744;7.012;2023-08-01T11:15:12;94786.56;;;22.28;84.85
33454;BME280;39400;49.744;7.012;2023-08-01T11:17:39;94804.28;;;22.20;82.57
33454;BME280;39400;49.744;7.012;2023-08-01T11:20:10;94805.75;;;21.52;81.07
33454;BME280;39400;49.744;7.012;2023-08-01T11:22:36;94798.16;;;21.32;80.78
33454;BME280;39400;49.744;7.012;2023-08-01T11:25:03;94776.84;;;21.34;82.12
33454;BME280;39400;49.744;7.012;2023-08-01T11:27:29;94771.31;;;21.20;80.59
33454;BME280;39400;49.744;7.012;2023-08-01T11:29:55;94782.84;;;21.27;79.64
33454;BME280;39400;49.744;7.012;2023-08-01T11:32:21;94761.25;;;21.54;79.90
33454;BME280;39400;49.744;7.012;2023-08-01T11:34:47;94783.63;;;21.54;79.88
33454;BME280;39400;49.744;7.012;2023-08-01T11:37:14;94770.47;;;21.60;80.55
33454;BME280;39400;49.744;7.012;2023-08-01T11:39:40;94768.50;;;21.14;82.17
33454;BME280;39400;49.744;7.012;2023-08-01T11:42:06;94792.31;;;21.56;81.55
33454;BME280;39400;49.744;7.012;2023-08-01T11:44:31;94779.78;;;21.77;79.22
33454;BME280;39400;49.744;7.012;2023-08-01T11:46:56;94776.66;;;21.70;80.04
33454;BME280;39400;49.744;7.012;2023-08-01T11:49:22;94773.03;;;21.58;79.70
33454;BME280;39400;49.744;7.012;2023-08-01T11:51:47;94783.31;;;21.00;77.53
33454;BME280;39400;49.744;7.012;2023-08-01T11:54:14;94788.38;;;20.96;78.48
33454;BME280;39400;49.744;7.012;2023-08-01T11:56:40;94795.34;;;20.65;78.83
33454;BME280;39400;49.744;7.012;2023-08-01T11:59:15;94795.28;;;21.47;78.83
33454;BME280;39400;49.744;7.012;2023-08-01T12:01:42;94782.84;;;21.48;79.47
33454;BME280;39400;49.744;7.012;2023-08-01T12:04:08;94789.81;;;21.58;79.84
33454;BME280;39400;49.744;7.012;2023-08-01T12:06:33;94780.88;;;21.33;78.33
33454;BME280;39400;49.744;7.012;2023-08-01T12:09:12;94780.09;;;21.85;77.99
33454;BME280;39400;49.744;7.012;2023-08-01T12:11:39;94788.59;;;21.39;74.65
33454;BME280;39400;49.744;7.012;2023-08-01T12:14:10;94789.44;;;21.76;73.41
33454;BME280;39400;49.744;7.012;2023-08-01T12:16:36;94782.13;;;22.16;72.58
33454;BME280;39400;49.744;7.012;2023-08-01T12:19:02;94781.13;;;21.56;73.92
33454;BME280;39400;49.744;7.012;2023-08-01T12:21:28;94789.34;;;21.39;74.66
33454;BME280;39400;49.744;7.012;2023-08-01T12:23:54;94801.16;;;21.28;75.29
33454;BME280;39400;49.744;7.012;2023-08-01T12:26:19;94786.03;;;21.93;75.78
33454;BME280;39400;49.744;7.012;2023-08-01T12:28:44;94780.78;;;21.74;75.47
33454;BME280;39400;49.744;7.012;2023-08-01T12:31:09;94790.31;;;21.10;77.31
33454;BME280;39400;49.744;7.012;2023-08-01T12:33:35;94785.00;;;21.64;78.66
33454;BME280;39400;49.744;7.012;2023-08-01T12:36:00;94791.41;;;21.18;77.73
33454;BME280;39400;49.744;7.012;2023-08-01T12:38:26;94813.53;;;20.96;78.02
33454;BME280;39400;49.744;7.012;2023-08-01T12:40:51;94794.81;;;21.54;77.86
33454;BME280;39400;49.744;7.012;2023-08-01T12:43:16;94797.13;;;21.09;77.80
33454;BME280;39400;49.744;7.012;2023-08-01T12:45:42;94800.06;;;21.20;76.85
33454;BME280;39400;49.744;7.012;2023-08-01T12:48:07;94801.47;;;21.10;75.79